createdAt,value
2017-08-18T00:01:43.986Z,32.87
2017-08-18T00:04:13.842Z,33.33
2017-08-18T00:06:43.735Z,30.97
2017-08-18T00:09:13.951Z,33.40
2017-08-18T00:11:43.824Z,43.13
2017-08-18T00:14:13.708Z,32.27
2017-08-18T00:16:43.986Z,44.70
2017-08-18T00:19:13.872Z,33.27
2017-08-18T00:21:43.773Z,36.13
2017-08-18T00:24:14.056Z,63.47
2017-08-18T00:26:43.915Z,43.13
2017-08-18T00:29:13.783Z,36.60
2017-08-18T00:31:43.957Z,44.83
2017-08-18T00:34:13.817Z,38.80
2017-08-18T00:36:43.693Z,36.53
2017-08-18T00:39:14.000Z,46.40
2017-08-18T00:41:43.862Z,36.90
2017-08-18T00:44:13.751Z,38.27
2017-08-18T00:46:44.056Z,44.10
2017-08-18T00:49:13.914Z,36.13
2017-08-18T00:51:43.778Z,38.90
2017-08-18T00:54:13.997Z,40.37
2017-08-18T00:56:43.857Z,38.20
2017-08-18T00:59:13.725Z,37.40
2017-08-18T01:01:44.062Z,36.20
2017-08-18T01:04:13.921Z,39.87
2017-08-18T01:06:59.068Z,34.33
2017-08-18T01:09:28.962Z,39.53
2017-08-18T01:11:59.171Z,35.33
2017-08-18T01:14:29.033Z,34.57
2017-08-18T01:16:59.408Z,39.57
2017-08-18T01:19:29.287Z,34.00
2017-08-18T01:21:59.485Z,34.60
2017-08-18T01:24:29.371Z,33.53
2017-08-18T01:26:59.694Z,35.90
2017-08-18T01:29:29.593Z,35.30
2017-08-18T01:31:59.810Z,35.23
2017-08-18T01:34:29.653Z,37.77
2017-08-18T01:36:59.894Z,34.37
2017-08-18T01:39:29.760Z,33.00
2017-08-18T01:41:59.662Z,34.93
2017-08-18T01:44:29.892Z,33.97
2017-08-18T01:46:59.734Z,34.80
2017-08-18T01:49:29.623Z,31.93
2017-08-18T01:51:59.840Z,39.87
2017-08-18T01:54:29.692Z,37.83
2017-08-18T01:56:59.624Z,35.60
2017-08-18T01:59:29.871Z,43.33
2017-08-18T02:01:59.716Z,42.57
2017-08-18T02:04:29.586Z,52.13
2017-08-18T02:06:59.850Z,39.57
2017-08-18T02:09:29.707Z,39.30
2017-08-18T02:11:59.974Z,41.97
2017-08-18T02:14:29.845Z,38.80
2017-08-18T02:16:59.737Z,33.83
2017-08-18T02:19:30.014Z,38.43
2017-08-18T02:21:59.883Z,35.37
2017-08-18T02:24:29.793Z,39.77
2017-08-18T02:27:00.067Z,36.10
2017-08-18T02:29:29.941Z,36.13
2017-08-18T02:31:59.806Z,36.57
2017-08-18T02:34:30.193Z,34.00
2017-08-18T02:37:00.061Z,37.07
2017-08-18T02:39:30.355Z,33.90
2017-08-18T02:42:00.255Z,35.40
2017-08-18T02:44:30.654Z,39.30
2017-08-18T02:47:00.530Z,33.80
2017-08-18T02:49:30.831Z,38.20
2017-08-18T02:52:00.683Z,37.27
2017-08-18T02:54:30.960Z,35.97
2017-08-18T02:57:00.838Z,31.27
2017-08-18T02:59:30.715Z,34.63
2017-08-18T03:02:01.010Z,32.60
2017-08-18T03:04:30.990Z,42.23
2017-08-18T03:07:01.349Z,44.17
2017-08-18T03:09:31.215Z,33.13
2017-08-18T03:12:01.514Z,35.23
2017-08-18T03:14:31.387Z,35.60
2017-08-18T03:17:01.589Z,30.50
2017-08-18T03:19:31.459Z,29.73
2017-08-18T03:22:01.647Z,31.17
2017-08-18T03:24:31.501Z,40.00
2017-08-18T03:27:01.862Z,40.07
2017-08-18T03:29:31.738Z,34.20
2017-08-18T03:32:02.017Z,32.77
2017-08-18T03:34:31.865Z,34.23
2017-08-18T03:37:02.270Z,32.17
2017-08-18T03:39:32.147Z,32.97
2017-08-18T03:42:02.423Z,26.93
2017-08-18T03:44:32.286Z,31.13
2017-08-18T03:47:02.481Z,34.03
2017-08-18T03:49:32.355Z,36.40
2017-08-18T03:52:02.762Z,35.70
2017-08-18T03:54:32.642Z,34.73
2017-08-18T03:57:02.902Z,42.07
2017-08-18T03:59:32.795Z,35.70
2017-08-18T04:02:02.675Z,39.03
2017-08-18T04:04:33.013Z,39.37
2017-08-18T04:07:02.888Z,49.50
2017-08-18T04:09:32.782Z,39.27
2017-08-18T04:12:03.039Z,47.13
2017-08-18T04:14:32.897Z,39.30
2017-08-18T04:17:02.782Z,46.40
2017-08-18T04:19:33.056Z,53.43
2017-08-18T04:22:02.916Z,44.93
2017-08-18T04:24:32.808Z,47.40
2017-08-18T04:27:03.116Z,46.70
2017-08-18T04:29:33.467Z,46.80
2017-08-18T04:32:03.843Z,38.93
2017-08-18T04:34:33.729Z,52.50
2017-08-18T04:37:03.975Z,45.43
2017-08-18T04:39:33.844Z,43.00
2017-08-18T04:42:03.735Z,47.90
2017-08-18T04:44:34.096Z,42.97
2017-08-18T04:47:03.957Z,45.87
2017-08-18T04:49:34.263Z,40.30
2017-08-18T04:52:04.128Z,44.37
2017-08-18T04:54:34.398Z,45.90
2017-08-18T04:57:04.249Z,48.83
2017-08-18T04:59:34.452Z,46.83
2017-08-18T05:02:05.105Z,48.97
2017-08-18T05:04:35.377Z,58.83
2017-08-18T05:07:05.458Z,49.03
2017-08-18T05:09:35.862Z,41.20
2017-08-18T05:12:05.723Z,51.63
2017-08-18T05:14:35.956Z,42.27
2017-08-18T05:17:05.860Z,42.00
2017-08-18T05:19:35.864Z,47.83
2017-08-18T05:22:06.319Z,45.97
2017-08-18T05:24:36.283Z,42.83
2017-08-18T05:27:06.502Z,48.47
2017-08-18T05:29:36.433Z,46.93
2017-08-18T05:32:06.688Z,41.20
2017-08-18T05:34:36.550Z,42.77
2017-08-18T05:37:06.830Z,44.97
2017-08-18T05:39:36.673Z,48.37
2017-08-18T05:42:06.962Z,44.07
2017-08-18T05:44:36.862Z,41.17
2017-08-18T05:47:06.743Z,45.93
2017-08-18T05:49:37.003Z,44.27
2017-08-18T05:52:06.851Z,40.63
2017-08-18T05:54:36.763Z,45.30
2017-08-18T05:57:07.015Z,41.90
2017-08-18T05:59:37.694Z,42.97
2017-08-18T06:02:07.898Z,36.90
2017-08-18T06:04:37.977Z,34.83
2017-08-18T06:07:08.238Z,42.60
2017-08-18T06:09:38.108Z,43.93
2017-08-18T06:12:08.416Z,42.73
2017-08-18T06:14:38.284Z,35.23
2017-08-18T06:17:08.508Z,34.70
2017-08-18T06:19:38.401Z,35.83
2017-08-18T06:22:08.637Z,33.33
2017-08-18T06:24:38.499Z,31.47
2017-08-18T06:27:08.808Z,34.80
2017-08-18T06:29:38.679Z,32.53
2017-08-18T06:32:09.036Z,33.47
2017-08-18T06:34:38.898Z,31.90
2017-08-18T06:37:08.769Z,35.70
2017-08-18T06:39:39.088Z,31.07
2017-08-18T06:42:08.969Z,31.40
2017-08-18T06:44:39.351Z,39.37
2017-08-18T06:47:09.227Z,37.47
2017-08-18T06:49:39.472Z,36.20
2017-08-18T06:52:09.338Z,31.30
2017-08-18T06:54:39.589Z,34.13
2017-08-18T06:57:09.484Z,28.97
2017-08-18T06:59:39.932Z,30.93
2017-08-18T07:02:09.798Z,35.33
2017-08-18T07:04:39.990Z,27.33
2017-08-18T07:07:09.943Z,31.33
2017-08-18T07:09:40.180Z,24.87
2017-08-18T07:12:10.162Z,24.47
2017-08-18T07:14:40.318Z,23.27
2017-08-18T07:17:10.279Z,22.10
2017-08-18T07:19:40.562Z,20.17
2017-08-18T07:22:10.465Z,21.73
2017-08-18T07:24:40.816Z,21.17
2017-08-18T07:27:10.683Z,20.13
2017-08-18T07:29:40.964Z,24.17
2017-08-18T07:32:10.878Z,26.57
2017-08-18T07:34:40.743Z,19.30
2017-08-18T07:37:10.943Z,20.40
2017-08-18T07:39:40.826Z,21.67
2017-08-18T07:42:10.731Z,16.70
2017-08-18T07:44:41.035Z,14.60
2017-08-18T07:47:10.939Z,13.90
2017-08-18T07:49:41.199Z,13.27
2017-08-18T07:52:11.079Z,19.67
2017-08-18T07:54:41.362Z,13.33
2017-08-18T07:57:11.272Z,22.07
2017-08-18T08:00:10.630Z,12.37
2017-08-18T08:02:40.510Z,12.53
2017-08-18T08:05:10.737Z,13.83
2017-08-18T08:07:40.573Z,18.13
2017-08-18T08:10:10.899Z,9.77
2017-08-18T08:12:40.764Z,12.87
2017-08-18T08:15:10.918Z,11.27
2017-08-18T08:17:40.973Z,9.60
2017-08-18T08:20:11.353Z,9.47
2017-08-18T08:22:41.181Z,12.87
2017-08-18T08:25:11.388Z,11.20
2017-08-18T08:27:41.244Z,11.27
2017-08-18T08:30:11.518Z,11.33
2017-08-18T08:32:41.370Z,10.53
2017-08-18T08:35:11.584Z,10.70
2017-08-18T08:37:41.443Z,9.20
2017-08-18T08:40:11.682Z,10.87
2017-08-18T08:42:41.551Z,11.23
2017-08-18T08:45:11.932Z,7.93
2017-08-18T08:47:41.894Z,7.23
2017-08-18T08:50:12.042Z,9.20
2017-08-18T08:52:41.900Z,11.80
2017-08-18T08:55:11.805Z,21.83
2017-08-18T08:57:42.073Z,10.03
2017-08-18T09:00:11.951Z,10.00
2017-08-18T09:02:42.174Z,11.43
2017-08-18T09:05:12.025Z,12.87
2017-08-18T09:07:42.288Z,10.27
2017-08-18T09:10:12.148Z,10.13
2017-08-18T09:12:42.398Z,10.43
2017-08-18T09:15:12.259Z,8.33
2017-08-18T09:17:42.456Z,11.57
2017-08-18T09:20:12.322Z,8.60
2017-08-18T09:22:42.565Z,9.53
2017-08-18T09:25:12.438Z,11.40
2017-08-18T09:27:42.713Z,9.47
2017-08-18T09:30:12.590Z,12.70
2017-08-18T09:32:42.965Z,9.47
2017-08-18T09:35:12.859Z,8.53
2017-08-18T09:37:42.744Z,10.63
2017-08-18T09:40:12.980Z,9.27
2017-08-18T09:42:42.993Z,11.53
2017-08-18T09:45:13.387Z,12.03
2017-08-18T09:47:43.245Z,10.70
2017-08-18T09:50:25.361Z,10.10
2017-08-18T09:56:14.348Z,10.83
2017-08-18T09:58:55.254Z,11.17
2017-08-18T10:01:25.446Z,12.93
2017-08-18T10:03:55.347Z,11.83
2017-08-18T10:06:25.678Z,35.43
2017-08-18T10:08:55.639Z,11.70
2017-08-18T10:11:26.003Z,13.50
2017-08-18T10:13:55.892Z,12.43
2017-08-18T10:16:25.822Z,13.97
2017-08-18T10:18:56.072Z,13.10
2017-08-18T10:21:25.937Z,13.80
2017-08-18T10:23:56.182Z,12.30
2017-08-18T10:26:26.047Z,15.50
2017-08-18T10:28:56.365Z,14.83
2017-08-18T10:31:26.297Z,13.83
2017-08-18T10:33:56.612Z,13.77
2017-08-18T10:36:26.636Z,14.70
2017-08-18T10:38:56.865Z,14.23
2017-08-18T10:41:27.024Z,14.20
2017-08-18T10:43:57.350Z,14.03
2017-08-18T10:46:27.322Z,15.87
2017-08-18T10:48:57.584Z,15.47
2017-08-18T10:51:27.530Z,14.07
2017-08-18T10:53:57.937Z,15.10
2017-08-18T10:56:27.905Z,17.70
2017-08-18T10:58:58.137Z,16.60
2017-08-18T11:01:28.043Z,15.27
2017-08-18T11:03:58.260Z,18.07
2017-08-18T11:06:28.147Z,17.47
2017-08-18T11:08:58.430Z,17.80
2017-08-18T11:11:28.312Z,19.53
2017-08-18T11:13:58.560Z,20.50
2017-08-18T11:16:28.750Z,19.70
2017-08-18T11:18:58.886Z,20.77
2017-08-18T11:21:28.790Z,21.33
2017-08-18T11:23:58.661Z,20.97
2017-08-18T11:26:28.720Z,21.33
2017-08-18T11:28:58.578Z,22.97
2017-08-18T11:31:28.607Z,23.97
2017-08-18T11:33:59.425Z,24.03
2017-08-18T11:36:29.466Z,25.23
2017-08-18T11:38:59.332Z,24.30
2017-08-18T11:41:29.371Z,24.87
2017-08-18T11:43:59.263Z,25.57
2017-08-18T11:46:29.447Z,25.33
2017-08-18T11:48:59.339Z,24.70
2017-08-18T11:51:29.620Z,24.93
2017-08-18T11:53:59.494Z,25.60
2017-08-18T11:56:29.656Z,27.50
2017-08-18T11:58:59.629Z,26.30
2017-08-18T12:01:29.846Z,25.23
2017-08-18T12:03:59.707Z,26.57
2017-08-18T12:06:30.769Z,26.37
2017-08-18T12:09:00.631Z,27.23
2017-08-18T12:11:30.887Z,27.50
2017-08-18T12:14:01.040Z,27.97
2017-08-18T12:16:31.410Z,28.53
2017-08-18T12:19:01.299Z,29.27
2017-08-18T12:21:31.541Z,29.07
2017-08-18T12:24:01.381Z,30.33
2017-08-18T12:26:31.650Z,33.03
2017-08-18T12:29:01.530Z,29.57
2017-08-18T12:31:31.806Z,29.87
2017-08-18T12:34:01.655Z,27.47
2017-08-18T12:36:31.945Z,33.60
2017-08-18T12:39:01.811Z,26.60
2017-08-18T12:41:31.681Z,25.00
2017-08-18T12:44:02.009Z,24.40
2017-08-18T12:46:31.867Z,24.97
2017-08-18T12:49:01.752Z,24.53
2017-08-18T12:51:32.039Z,24.30
2017-08-18T12:54:01.905Z,22.27
2017-08-18T12:56:32.198Z,22.57
2017-08-18T12:59:02.084Z,20.67
2017-08-18T13:01:32.301Z,19.50
2017-08-18T13:04:02.205Z,21.20
2017-08-18T13:06:32.436Z,21.00
2017-08-18T13:09:02.424Z,24.50
2017-08-18T13:11:32.592Z,20.40
2017-08-18T13:14:02.501Z,24.73
2017-08-18T13:16:32.870Z,21.50
2017-08-18T13:19:02.742Z,24.83
2017-08-18T13:21:33.064Z,17.83
2017-08-18T13:24:03.102Z,26.27
2017-08-18T13:26:33.419Z,18.33
2017-08-18T13:29:03.319Z,20.30
2017-08-18T13:31:33.706Z,24.70
2017-08-18T13:34:03.671Z,16.57
2017-08-18T13:36:33.942Z,14.17
2017-08-18T13:39:03.783Z,15.90
2017-08-18T13:41:33.686Z,13.43
2017-08-18T13:44:04.046Z,13.73
2017-08-18T13:46:33.922Z,11.67
2017-08-18T13:49:03.886Z,14.40
2017-08-18T13:51:34.172Z,14.60
2017-08-18T13:54:04.032Z,18.43
2017-08-18T13:56:34.435Z,9.50
2017-08-18T13:59:04.310Z,9.10
2017-08-18T14:01:34.567Z,14.70
2017-08-18T14:04:04.443Z,9.47
2017-08-18T14:06:34.590Z,8.80
2017-08-18T14:09:04.447Z,9.40
2017-08-18T14:11:34.694Z,10.07
2017-08-18T14:14:04.633Z,7.60
2017-08-18T14:16:34.979Z,8.93
2017-08-18T14:19:04.847Z,8.43
2017-08-18T14:21:34.789Z,12.37
2017-08-18T14:24:04.984Z,7.63
2017-08-18T14:26:40.257Z,10.20
2017-08-18T14:29:10.417Z,8.07
2017-08-18T14:31:40.280Z,8.03
2017-08-18T14:34:10.590Z,7.47
2017-08-18T14:36:40.464Z,8.80
2017-08-18T14:39:10.711Z,10.03
2017-08-18T14:41:40.540Z,7.70
2017-08-18T14:44:10.843Z,8.07
2017-08-18T14:46:40.741Z,8.50
2017-08-18T14:49:11.016Z,8.80
2017-08-18T14:51:40.900Z,13.80
2017-08-18T14:54:11.236Z,8.43
2017-08-18T14:56:41.183Z,7.97
2017-08-18T14:59:11.368Z,10.10
2017-08-18T15:01:41.226Z,10.20
2017-08-18T15:04:11.505Z,6.93
2017-08-18T15:06:41.349Z,7.13
2017-08-18T15:09:11.703Z,9.60
2017-08-18T15:11:41.578Z,6.57
2017-08-18T15:14:11.795Z,7.97
2017-08-18T15:16:41.666Z,7.97
2017-08-18T15:19:11.943Z,7.00
2017-08-18T15:21:41.797Z,9.43
2017-08-18T15:24:12.042Z,10.83
2017-08-18T15:26:41.963Z,8.97
2017-08-18T15:29:12.207Z,7.50
2017-08-18T15:31:42.075Z,9.07
2017-08-18T15:34:12.234Z,7.80
2017-08-18T15:36:42.142Z,7.00
2017-08-18T15:39:12.438Z,8.50
2017-08-18T15:41:42.329Z,8.43
2017-08-18T15:44:12.573Z,8.60
2017-08-18T15:46:42.438Z,8.80
2017-08-18T15:49:12.820Z,8.73
2017-08-18T15:51:42.694Z,11.20
2017-08-18T15:54:13.059Z,9.80
2017-08-18T15:56:42.910Z,11.37
2017-08-18T15:59:13.201Z,10.10
2017-08-18T16:01:43.056Z,9.13
2017-08-18T16:04:13.342Z,9.20
2017-08-18T16:06:43.216Z,10.57
2017-08-18T16:09:13.467Z,11.73
2017-08-18T16:11:43.364Z,8.90
2017-08-18T16:14:13.619Z,11.30
2017-08-18T16:16:43.454Z,9.23
2017-08-18T16:19:13.858Z,10.40
2017-08-18T16:21:43.721Z,9.33
2017-08-18T16:24:13.990Z,12.03
2017-08-18T16:26:43.855Z,9.80
2017-08-18T16:29:13.755Z,8.77
2017-08-18T16:31:44.024Z,9.70
2017-08-18T16:34:13.899Z,8.53
2017-08-18T16:36:43.952Z,9.97
2017-08-18T16:39:14.213Z,11.93
2017-08-18T16:41:44.064Z,9.67
2017-08-18T16:44:14.225Z,8.80
2017-08-18T16:46:44.082Z,8.47
2017-08-18T16:49:14.316Z,11.43
2017-08-18T16:51:44.316Z,11.20
2017-08-18T16:54:14.633Z,10.83
2017-08-18T16:56:44.533Z,10.20
2017-08-18T16:59:14.904Z,9.30
2017-08-18T17:01:44.785Z,15.00
2017-08-18T17:04:15.229Z,8.10
2017-08-18T17:06:45.084Z,10.47
2017-08-18T17:09:15.384Z,12.97
2017-08-18T17:11:45.260Z,10.63
2017-08-18T17:14:15.580Z,12.70
2017-08-18T17:16:45.488Z,12.50
2017-08-18T17:19:15.955Z,11.80
2017-08-18T17:21:45.887Z,13.17
2017-08-18T17:24:16.048Z,13.60
2017-08-18T17:26:46.160Z,20.50
2017-08-18T17:29:16.596Z,16.63
2017-08-18T17:31:46.602Z,17.50
2017-08-18T17:34:17.717Z,18.07
2017-08-18T17:36:48.984Z,17.23
2017-08-18T17:39:19.672Z,18.57
2017-08-18T17:41:49.754Z,17.90
2017-08-18T17:44:19.943Z,23.90
2017-08-18T17:46:49.952Z,19.93
2017-08-18T17:49:20.179Z,34.57
2017-08-18T17:51:50.684Z,28.50
2017-08-18T17:54:20.834Z,22.60
2017-08-18T17:56:50.938Z,22.10
2017-08-18T17:59:21.142Z,22.20
2017-08-18T18:01:51.010Z,21.47
2017-08-18T18:04:21.266Z,21.63
2017-08-18T18:06:51.185Z,23.50
2017-08-18T18:09:21.453Z,27.87
2017-08-18T18:11:51.367Z,24.63
2017-08-18T18:14:21.601Z,26.03
2017-08-18T18:16:51.495Z,25.63
2017-08-18T18:19:21.888Z,24.23
2017-08-18T18:21:51.810Z,26.73
2017-08-18T18:24:22.132Z,24.43
2017-08-18T18:26:52.033Z,23.37
2017-08-18T18:29:22.294Z,24.23
2017-08-18T18:31:52.183Z,31.20
2017-08-18T18:34:22.494Z,29.17
2017-08-18T18:36:52.354Z,26.57
2017-08-18T18:39:22.515Z,23.83
2017-08-18T18:41:52.403Z,22.03
2017-08-18T18:44:22.669Z,22.00
2017-08-18T18:46:52.598Z,24.70
2017-08-18T18:49:22.871Z,25.93
2017-08-18T18:51:52.778Z,24.10
2017-08-18T18:54:22.705Z,23.17
2017-08-18T18:56:53.046Z,22.00
2017-08-18T18:59:22.956Z,27.10
2017-08-18T19:01:53.287Z,14.13
2017-08-18T19:04:23.201Z,9.60
2017-08-18T19:06:53.396Z,12.53
2017-08-18T19:09:23.283Z,9.20
2017-08-18T19:11:53.516Z,5.27
2017-08-18T19:14:23.437Z,5.53
2017-08-18T19:16:53.686Z,5.13
2017-08-18T19:19:23.546Z,5.27
2017-08-18T19:21:53.822Z,5.93
2017-08-18T19:24:23.786Z,4.40
2017-08-18T19:26:54.017Z,3.17
2017-08-18T19:29:23.936Z,4.50
2017-08-18T19:31:53.867Z,2.97
2017-08-18T19:34:24.236Z,3.47
2017-08-18T19:36:54.098Z,3.10
2017-08-18T19:39:24.339Z,4.07
2017-08-18T19:41:54.231Z,3.60
2017-08-18T19:44:24.600Z,7.03
2017-08-18T19:46:54.600Z,3.53
2017-08-18T19:49:24.819Z,5.13
2017-08-18T19:51:54.683Z,6.27
2017-08-18T19:54:25.004Z,4.43
2017-08-18T19:56:55.137Z,5.83
2017-08-18T19:59:25.602Z,3.50
2017-08-18T20:01:55.499Z,5.10
2017-08-18T20:04:25.772Z,3.83
2017-08-18T20:06:55.728Z,4.20
2017-08-18T20:09:26.061Z,5.27
2017-08-18T20:11:55.942Z,4.90
2017-08-18T20:14:25.821Z,3.50
2017-08-18T20:16:56.106Z,4.23
2017-08-18T20:19:25.930Z,5.30
2017-08-18T20:21:55.824Z,5.87
2017-08-18T20:24:26.070Z,5.33
2017-08-18T20:26:55.973Z,5.23
2017-08-18T20:29:26.206Z,5.30
2017-08-18T20:31:56.197Z,5.57
2017-08-18T20:34:26.445Z,4.80
2017-08-18T20:36:56.364Z,4.93
2017-08-18T20:39:26.535Z,5.17
2017-08-18T20:41:56.453Z,5.33
2017-08-18T20:44:26.825Z,5.03
2017-08-18T20:46:56.719Z,4.47
2017-08-18T20:49:26.974Z,6.87
2017-08-18T20:51:56.852Z,7.67
2017-08-18T20:54:26.757Z,5.50
2017-08-18T20:56:56.996Z,8.03
2017-08-18T20:59:27.091Z,6.97
2017-08-18T21:01:57.342Z,7.03
2017-08-18T21:04:27.406Z,9.37
2017-08-18T21:06:57.659Z,9.67
2017-08-18T21:09:27.591Z,14.93
2017-08-18T21:11:57.805Z,8.40
2017-08-18T21:14:27.763Z,10.33
2017-08-18T21:16:58.155Z,9.43
2017-08-18T21:19:28.121Z,10.93
2017-08-18T21:21:58.487Z,13.33
2017-08-18T21:24:28.395Z,10.27
2017-08-18T21:26:58.630Z,10.83
2017-08-18T21:29:28.475Z,10.57
2017-08-18T21:31:58.706Z,11.63
2017-08-18T21:34:28.596Z,17.97
2017-08-18T21:36:58.783Z,14.73
2017-08-18T21:39:28.658Z,16.43
2017-08-18T21:41:58.982Z,12.90
2017-08-18T21:44:28.865Z,13.90
2017-08-18T21:46:58.787Z,15.60
2017-08-18T21:49:29.134Z,15.17
2017-08-18T21:51:59.011Z,17.60
2017-08-18T21:54:29.209Z,15.50
2017-08-18T21:56:59.134Z,15.67
2017-08-18T21:59:29.347Z,16.80
2017-08-18T22:01:59.225Z,21.80
2017-08-18T22:04:29.478Z,18.40
2017-08-18T22:06:59.368Z,19.57
2017-08-18T22:09:29.600Z,23.17
2017-08-18T22:11:59.706Z,18.00
2017-08-18T22:14:29.853Z,19.00
2017-08-18T22:16:59.772Z,20.80
2017-08-18T22:19:29.673Z,28.83
2017-08-18T22:21:59.914Z,24.13
2017-08-18T22:24:29.804Z,20.67
2017-08-18T22:26:59.680Z,23.80
2017-08-18T22:29:29.853Z,23.87
2017-08-18T22:31:59.868Z,25.07
2017-08-18T22:34:29.767Z,23.70
2017-08-18T22:37:00.048Z,28.30
2017-08-18T22:39:29.945Z,22.63
2017-08-18T22:42:00.134Z,25.20
2017-08-18T22:44:30.009Z,30.57
2017-08-18T22:47:00.196Z,28.13
2017-08-18T22:49:30.082Z,34.57
2017-08-18T22:52:00.256Z,28.40
2017-08-18T22:54:30.150Z,35.33
2017-08-18T22:57:00.337Z,33.43
2017-08-18T22:59:30.240Z,28.57
2017-08-18T23:02:00.454Z,32.03
2017-08-18T23:04:30.399Z,33.57
2017-08-18T23:07:00.621Z,40.47
2017-08-18T23:09:30.495Z,31.87
2017-08-18T23:12:00.783Z,34.07
2017-08-18T23:14:30.635Z,40.67
2017-08-18T23:17:00.827Z,38.60
2017-08-18T23:19:30.732Z,46.67
2017-08-18T23:22:00.628Z,38.17
2017-08-18T23:24:30.822Z,34.47
2017-08-18T23:27:00.742Z,31.63
2017-08-18T23:29:30.930Z,35.90
2017-08-18T23:32:00.808Z,44.07
2017-08-18T23:34:30.706Z,40.57
2017-08-18T23:37:00.880Z,39.87
2017-08-18T23:39:30.749Z,36.10
2017-08-18T23:42:00.629Z,32.90
2017-08-18T23:44:30.839Z,28.17
2017-08-18T23:47:00.703Z,32.60
2017-08-18T23:49:31.021Z,35.93
2017-08-18T23:52:00.986Z,28.37
2017-08-18T23:54:31.164Z,28.40
2017-08-18T23:57:01.053Z,29.57
2017-08-18T23:59:31.255Z,35.50
